sensor_id;sensor_type;location;lat;lon;timestamp;P1;durP1;ratioP1;P2;durP2;ratioP2
49840;SDS011;35738;49.890;5.930;2023-12-04T00:00:20;25.90;;;13.17;;
49840;SDS011;35738;49.890;5.930;2023-12-04T00:02:46;26.57;;;13.63;;
49840;SDS011;35738;49.890;5.930;2023-12-04T00:05:12;22.97;;;12.40;;
49840;SDS011;35738;49.890;5.930;2023-12-04T00:07:39;26.17;;;13.07;;
49840;SDS011;35738;49.890;5.930;2023-12-04T00:10:05;22.73;;;12.67;;
49840;SDS011;35738;49.890;5.930;2023-12-04T00:12:32;25.37;;;13.13;;
49840;SDS011;35738;49.890;5.930;2023-12-04T00:14:59;24.83;;;12.20;;
49840;SDS011;35738;49.890;5.930;2023-12-04T00:17:25;27.27;;;13.30;;
49840;SDS011;35738;49.890;5.930;2023-12-04T00:19:52;25.83;;;12.43;;
49840;SDS011;35738;49.890;5.930;2023-12-04T00:22:19;24.20;;;12.90;;
49840;SDS011;35738;49.890;5.930;2023-12-04T00:24:45;26.33;;;12.67;;
49840;SDS011;35738;49.890;5.930;2023-12-04T00:27:12;26.07;;;13.43;;
49840;SDS011;35738;49.890;5.930;2023-12-04T00:29:39;26.30;;;13.40;;
49840;SDS011;35738;49.890;5.930;2023-12-04T00:32:05;24.60;;;13.03;;
49840;SDS011;35738;49.890;5.930;2023-12-04T00:34:31;25.00;;;12.60;;
49840;SDS011;35738;49.890;5.930;2023-12-04T00:36:58;25.53;;;12.90;;
49840;SDS011;35738;49.890;5.930;2023-12-04T00:39:24;24.07;;;13.00;;
49840;SDS011;35738;49.890;5.930;2023-12-04T00:41:51;23.60;;;12.73;;
49840;SDS011;35738;49.890;5.930;2023-12-04T00:44:17;21.10;;;11.80;;
49840;SDS011;35738;49.890;5.930;2023-12-04T00:46:43;27.97;;;13.57;;
49840;SDS011;35738;49.890;5.930;2023-12-04T00:49:10;24.37;;;12.00;;
49840;SDS011;35738;49.890;5.930;2023-12-04T00:51:37;25.70;;;13.07;;
49840;SDS011;35738;49.890;5.930;2023-12-04T00:54:03;21.70;;;11.97;;
49840;SDS011;35738;49.890;5.930;2023-12-04T00:56:30;25.27;;;12.70;;
49840;SDS011;35738;49.890;5.930;2023-12-04T00:58:56;23.67;;;12.90;;
49840;SDS011;35738;49.890;5.930;2023-12-04T01:01:23;23.80;;;12.60;;
49840;SDS011;35738;49.890;5.930;2023-12-04T01:03:50;22.87;;;12.33;;
49840;SDS011;35738;49.890;5.930;2023-12-04T01:06:20;22.50;;;12.40;;
49840;SDS011;35738;49.890;5.930;2023-12-04T01:08:48;23.10;;;12.70;;
49840;SDS011;35738;49.890;5.930;2023-12-04T01:11:15;25.67;;;12.60;;
49840;SDS011;35738;49.890;5.930;2023-12-04T01:13:41;25.70;;;12.83;;
49840;SDS011;35738;49.890;5.930;2023-12-04T01:16:07;25.63;;;13.20;;
49840;SDS011;35738;49.890;5.930;2023-12-04T01:18:34;22.30;;;12.47;;
49840;SDS011;35738;49.890;5.930;2023-12-04T01:21:00;19.57;;;11.00;;
49840;SDS011;35738;49.890;5.930;2023-12-04T01:23:27;22.40;;;11.47;;
49840;SDS011;35738;49.890;5.930;2023-12-04T01:25:54;20.10;;;11.33;;
49840;SDS011;35738;49.890;5.930;2023-12-04T01:28:20;23.47;;;11.77;;
49840;SDS011;35738;49.890;5.930;2023-12-04T01:30:46;22.43;;;12.13;;
49840;SDS011;35738;49.890;5.930;2023-12-04T01:33:13;23.27;;;12.03;;
49840;SDS011;35738;49.890;5.930;2023-12-04T01:35:40;20.87;;;11.53;;
49840;SDS011;35738;49.890;5.930;2023-12-04T01:38:06;22.03;;;11.63;;
49840;SDS011;35738;49.890;5.930;2023-12-04T01:40:32;23.40;;;12.13;;
49840;SDS011;35738;49.890;5.930;2023-12-04T01:42:59;19.73;;;11.07;;
49840;SDS011;35738;49.890;5.930;2023-12-04T01:45:26;19.13;;;11.67;;
49840;SDS011;35738;49.890;5.930;2023-12-04T01:47:52;21.97;;;12.43;;
49840;SDS011;35738;49.890;5.930;2023-12-04T01:50:19;20.87;;;11.30;;
49840;SDS011;35738;49.890;5.930;2023-12-04T01:52:46;20.03;;;11.67;;
49840;SDS011;35738;49.890;5.930;2023-12-04T01:55:13;19.07;;;11.03;;
49840;SDS011;35738;49.890;5.930;2023-12-04T01:57:41;20.90;;;11.27;;
49840;SDS011;35738;49.890;5.930;2023-12-04T02:00:07;20.07;;;11.00;;
49840;SDS011;35738;49.890;5.930;2023-12-04T02:02:41;22.33;;;11.53;;
49840;SDS011;35738;49.890;5.930;2023-12-04T02:05:10;21.67;;;11.40;;
49840;SDS011;35738;49.890;5.930;2023-12-04T02:07:37;20.83;;;11.00;;
49840;SDS011;35738;49.890;5.930;2023-12-04T02:10:03;19.83;;;11.20;;
49840;SDS011;35738;49.890;5.930;2023-12-04T02:12:30;21.23;;;11.57;;
49840;SDS011;35738;49.890;5.930;2023-12-04T02:14:57;19.73;;;10.97;;
49840;SDS011;35738;49.890;5.930;2023-12-04T02:17:24;19.17;;;10.40;;
49840;SDS011;35738;49.890;5.930;2023-12-04T02:19:52;22.07;;;11.70;;
49840;SDS011;35738;49.890;5.930;2023-12-04T02:22:18;18.20;;;10.63;;
49840;SDS011;35738;49.890;5.930;2023-12-04T02:24:48;18.97;;;10.50;;
49840;SDS011;35738;49.890;5.930;2023-12-04T02:27:18;19.43;;;10.30;;
49840;SDS011;35738;49.890;5.930;2023-12-04T02:29:47;19.40;;;11.13;;
49840;SDS011;35738;49.890;5.930;2023-12-04T02:32:17;16.57;;;10.07;;
49840;SDS011;35738;49.890;5.930;2023-12-04T02:34:45;18.77;;;10.10;;
49840;SDS011;35738;49.890;5.930;2023-12-04T02:37:13;21.53;;;10.77;;
49840;SDS011;35738;49.890;5.930;2023-12-04T02:39:40;17.57;;;11.10;;
49840;SDS011;35738;49.890;5.930;2023-12-04T02:42:07;19.27;;;10.40;;
49840;SDS011;35738;49.890;5.930;2023-12-04T02:44:33;20.30;;;11.27;;
49840;SDS011;35738;49.890;5.930;2023-12-04T02:47:00;19.10;;;10.30;;
49840;SDS011;35738;49.890;5.930;2023-12-04T02:49:26;19.37;;;10.60;;
49840;SDS011;35738;49.890;5.930;2023-12-04T02:51:53;19.77;;;10.67;;
49840;SDS011;35738;49.890;5.930;2023-12-04T02:54:19;20.67;;;10.50;;
49840;SDS011;35738;49.890;5.930;2023-12-04T02:56:45;22.23;;;10.87;;
49840;SDS011;35738;49.890;5.930;2023-12-04T02:59:12;17.80;;;10.13;;
49840;SDS011;35738;49.890;5.930;2023-12-04T03:01:38;17.60;;;9.93;;
49840;SDS011;35738;49.890;5.930;2023-12-04T03:04:05;19.27;;;10.20;;
49840;SDS011;35738;49.890;5.930;2023-12-04T03:06:31;17.00;;;9.83;;
49840;SDS011;35738;49.890;5.930;2023-12-04T03:08:59;17.10;;;9.77;;
49840;SDS011;35738;49.890;5.930;2023-12-04T03:11:25;18.17;;;10.57;;
49840;SDS011;35738;49.890;5.930;2023-12-04T03:13:52;18.93;;;10.20;;
49840;SDS011;35738;49.890;5.930;2023-12-04T03:16:19;20.13;;;10.50;;
49840;SDS011;35738;49.890;5.930;2023-12-04T03:18:45;22.13;;;10.73;;
49840;SDS011;35738;49.890;5.930;2023-12-04T03:21:12;18.70;;;10.87;;
49840;SDS011;35738;49.890;5.930;2023-12-04T03:23:38;21.03;;;11.00;;
49840;SDS011;35738;49.890;5.930;2023-12-04T03:26:05;17.97;;;10.30;;
49840;SDS011;35738;49.890;5.930;2023-12-04T03:28:31;18.73;;;10.20;;
49840;SDS011;35738;49.890;5.930;2023-12-04T03:30:58;20.37;;;10.47;;
49840;SDS011;35738;49.890;5.930;2023-12-04T03:33:24;20.03;;;11.00;;
49840;SDS011;35738;49.890;5.930;2023-12-04T03:35:51;16.67;;;10.10;;
49840;SDS011;35738;49.890;5.930;2023-12-04T03:38:17;18.87;;;10.47;;
49840;SDS011;35738;49.890;5.930;2023-12-04T03:40:43;18.10;;;9.90;;
49840;SDS011;35738;49.890;5.930;2023-12-04T03:43:10;18.33;;;10.10;;
49840;SDS011;35738;49.890;5.930;2023-12-04T03:45:36;19.30;;;10.00;;
49840;SDS011;35738;49.890;5.930;2023-12-04T03:48:03;19.93;;;10.90;;
49840;SDS011;35738;49.890;5.930;2023-12-04T03:50:29;18.83;;;10.50;;
49840;SDS011;35738;49.890;5.930;2023-12-04T03:52:56;17.63;;;9.67;;
49840;SDS011;35738;49.890;5.930;2023-12-04T03:55:22;15.87;;;9.30;;
49840;SDS011;35738;49.890;5.930;2023-12-04T03:57:48;19.80;;;9.80;;
49840;SDS011;35738;49.890;5.930;2023-12-04T04:00:15;16.97;;;9.53;;
49840;SDS011;35738;49.890;5.930;2023-12-04T04:02:43;18.67;;;10.00;;
49840;SDS011;35738;49.890;5.930;2023-12-04T04:05:10;19.57;;;10.73;;
49840;SDS011;35738;49.890;5.930;2023-12-04T04:07:36;17.23;;;10.30;;
49840;SDS011;35738;49.890;5.930;2023-12-04T04:10:03;19.57;;;11.00;;
49840;SDS011;35738;49.890;5.930;2023-12-04T04:12:33;21.03;;;9.97;;
49840;SDS011;35738;49.890;5.930;2023-12-04T04:14:59;19.40;;;10.30;;
49840;SDS011;35738;49.890;5.930;2023-12-04T04:17:26;21.70;;;10.40;;
49840;SDS011;35738;49.890;5.930;2023-12-04T04:19:53;19.23;;;9.80;;
49840;SDS011;35738;49.890;5.930;2023-12-04T04:22:20;19.93;;;10.00;;
49840;SDS011;35738;49.890;5.930;2023-12-04T04:24:47;17.33;;;9.93;;
49840;SDS011;35738;49.890;5.930;2023-12-04T04:27:13;18.90;;;10.47;;
49840;SDS011;35738;49.890;5.930;2023-12-04T04:29:40;18.87;;;9.53;;
49840;SDS011;35738;49.890;5.930;2023-12-04T04:32:06;14.23;;;8.60;;
49840;SDS011;35738;49.890;5.930;2023-12-04T04:34:32;15.83;;;8.40;;
49840;SDS011;35738;49.890;5.930;2023-12-04T04:36:59;15.33;;;8.90;;
49840;SDS011;35738;49.890;5.930;2023-12-04T04:39:25;16.67;;;8.33;;
49840;SDS011;35738;49.890;5.930;2023-12-04T04:41:52;14.23;;;8.77;;
49840;SDS011;35738;49.890;5.930;2023-12-04T04:44:18;14.33;;;8.67;;
49840;SDS011;35738;49.890;5.930;2023-12-04T04:46:44;15.67;;;8.70;;
49840;SDS011;35738;49.890;5.930;2023-12-04T04:49:11;16.57;;;8.13;;
49840;SDS011;35738;49.890;5.930;2023-12-04T04:51:37;13.30;;;8.33;;
49840;SDS011;35738;49.890;5.930;2023-12-04T04:54:04;15.13;;;8.17;;
49840;SDS011;35738;49.890;5.930;2023-12-04T04:56:30;14.67;;;8.17;;
49840;SDS011;35738;49.890;5.930;2023-12-04T04:58:56;14.40;;;8.20;;
49840;SDS011;35738;49.890;5.930;2023-12-04T05:01:23;14.80;;;8.73;;
49840;SDS011;35738;49.890;5.930;2023-12-04T05:03:49;13.97;;;8.30;;
49840;SDS011;35738;49.890;5.930;2023-12-04T05:06:16;17.13;;;8.33;;
49840;SDS011;35738;49.890;5.930;2023-12-04T05:08:42;15.57;;;9.27;;
49840;SDS011;35738;49.890;5.930;2023-12-04T05:11:09;14.87;;;8.47;;
49840;SDS011;35738;49.890;5.930;2023-12-04T05:13:35;13.87;;;8.33;;
49840;SDS011;35738;49.890;5.930;2023-12-04T05:16:01;13.67;;;7.97;;
49840;SDS011;35738;49.890;5.930;2023-12-04T05:18:28;15.70;;;8.57;;
49840;SDS011;35738;49.890;5.930;2023-12-04T05:20:54;13.20;;;7.40;;
49840;SDS011;35738;49.890;5.930;2023-12-04T05:23:21;17.10;;;8.10;;
49840;SDS011;35738;49.890;5.930;2023-12-04T05:25:47;14.67;;;8.07;;
49840;SDS011;35738;49.890;5.930;2023-12-04T05:28:16;14.13;;;8.10;;
49840;SDS011;35738;49.890;5.930;2023-12-04T05:30:42;13.57;;;8.03;;
49840;SDS011;35738;49.890;5.930;2023-12-04T05:33:10;14.20;;;7.33;;
49840;SDS011;35738;49.890;5.930;2023-12-04T05:35:37;13.80;;;8.43;;
49840;SDS011;35738;49.890;5.930;2023-12-04T05:38:03;15.47;;;8.50;;
49840;SDS011;35738;49.890;5.930;2023-12-04T05:40:30;14.40;;;8.20;;
49840;SDS011;35738;49.890;5.930;2023-12-04T05:42:56;12.10;;;7.30;;
49840;SDS011;35738;49.890;5.930;2023-12-04T05:45:23;13.40;;;8.17;;
49840;SDS011;35738;49.890;5.930;2023-12-04T05:47:49;17.23;;;8.20;;
49840;SDS011;35738;49.890;5.930;2023-12-04T05:50:16;14.50;;;7.90;;
49840;SDS011;35738;49.890;5.930;2023-12-04T05:52:42;14.03;;;8.33;;
49840;SDS011;35738;49.890;5.930;2023-12-04T05:55:09;13.87;;;8.13;;
49840;SDS011;35738;49.890;5.930;2023-12-04T05:57:35;15.00;;;8.63;;
49840;SDS011;35738;49.890;5.930;2023-12-04T06:00:01;15.17;;;7.93;;
49840;SDS011;35738;49.890;5.930;2023-12-04T06:02:28;13.30;;;8.40;;
49840;SDS011;35738;49.890;5.930;2023-12-04T06:04:56;16.57;;;8.70;;
49840;SDS011;35738;49.890;5.930;2023-12-04T06:07:23;14.33;;;7.77;;
49840;SDS011;35738;49.890;5.930;2023-12-04T06:09:50;13.73;;;8.07;;
49840;SDS011;35738;49.890;5.930;2023-12-04T06:12:16;14.00;;;8.43;;
49840;SDS011;35738;49.890;5.930;2023-12-04T06:14:43;14.87;;;8.70;;
49840;SDS011;35738;49.890;5.930;2023-12-04T06:17:09;13.37;;;7.77;;
49840;SDS011;35738;49.890;5.930;2023-12-04T06:19:36;14.57;;;8.13;;
49840;SDS011;35738;49.890;5.930;2023-12-04T06:22:02;13.67;;;7.80;;
49840;SDS011;35738;49.890;5.930;2023-12-04T06:24:30;11.80;;;7.57;;
49840;SDS011;35738;49.890;5.930;2023-12-04T06:26:56;13.23;;;8.07;;
49840;SDS011;35738;49.890;5.930;2023-12-04T06:29:23;12.83;;;8.07;;
49840;SDS011;35738;49.890;5.930;2023-12-04T06:31:50;12.83;;;7.93;;
49840;SDS011;35738;49.890;5.930;2023-12-04T06:34:16;14.70;;;8.27;;
49840;SDS011;35738;49.890;5.930;2023-12-04T06:36:43;12.17;;;7.73;;
49840;SDS011;35738;49.890;5.930;2023-12-04T06:39:10;15.57;;;8.33;;
49840;SDS011;35738;49.890;5.930;2023-12-04T06:41:38;12.93;;;7.73;;
49840;SDS011;35738;49.890;5.930;2023-12-04T06:44:06;15.10;;;7.67;;
49840;SDS011;35738;49.890;5.930;2023-12-04T06:46:34;14.60;;;8.27;;
49840;SDS011;35738;49.890;5.930;2023-12-04T06:49:02;15.50;;;8.60;;
49840;SDS011;35738;49.890;5.930;2023-12-04T06:51:30;13.87;;;7.93;;
49840;SDS011;35738;49.890;5.930;2023-12-04T06:53:56;12.60;;;7.33;;
49840;SDS011;35738;49.890;5.930;2023-12-04T06:56:23;11.70;;;7.40;;
49840;SDS011;35738;49.890;5.930;2023-12-04T06:58:49;14.83;;;8.40;;
49840;SDS011;35738;49.890;5.930;2023-12-04T07:01:16;14.47;;;8.50;;
49840;SDS011;35738;49.890;5.930;2023-12-04T07:03:42;14.37;;;8.13;;
49840;SDS011;35738;49.890;5.930;2023-12-04T07:06:09;14.03;;;8.40;;
49840;SDS011;35738;49.890;5.930;2023-12-04T07:08:35;16.87;;;9.10;;
49840;SDS011;35738;49.890;5.930;2023-12-04T07:11:02;14.07;;;7.80;;
49840;SDS011;35738;49.890;5.930;2023-12-04T07:13:28;15.20;;;8.20;;
49840;SDS011;35738;49.890;5.930;2023-12-04T07:15:54;15.10;;;8.77;;
49840;SDS011;35738;49.890;5.930;2023-12-04T07:18:21;14.97;;;8.27;;
49840;SDS011;35738;49.890;5.930;2023-12-04T07:20:47;15.57;;;9.13;;
49840;SDS011;35738;49.890;5.930;2023-12-04T07:23:14;12.97;;;8.13;;
49840;SDS011;35738;49.890;5.930;2023-12-04T07:26:20;15.23;;;8.00;;
49840;SDS011;35738;49.890;5.930;2023-12-04T07:28:46;13.90;;;7.73;;
49840;SDS011;35738;49.890;5.930;2023-12-04T07:31:13;12.83;;;7.77;;
49840;SDS011;35738;49.890;5.930;2023-12-04T07:33:39;14.43;;;8.43;;
49840;SDS011;35738;49.890;5.930;2023-12-04T07:36:06;13.23;;;7.97;;
49840;SDS011;35738;49.890;5.930;2023-12-04T07:38:32;16.93;;;8.37;;
49840;SDS011;35738;49.890;5.930;2023-12-04T07:40:59;16.33;;;8.63;;
49840;SDS011;35738;49.890;5.930;2023-12-04T07:43:25;14.77;;;8.47;;
49840;SDS011;35738;49.890;5.930;2023-12-04T07:45:51;13.97;;;8.43;;
49840;SDS011;35738;49.890;5.930;2023-12-04T07:48:18;14.07;;;8.13;;
49840;SDS011;35738;49.890;5.930;2023-12-04T07:50:45;14.47;;;8.87;;
49840;SDS011;35738;49.890;5.930;2023-12-04T07:53:11;16.10;;;8.43;;
49840;SDS011;35738;49.890;5.930;2023-12-04T07:55:39;18.57;;;8.73;;
49840;SDS011;35738;49.890;5.930;2023-12-04T07:58:06;17.07;;;9.53;;
49840;SDS011;35738;49.890;5.930;2023-12-04T08:00:33;14.97;;;8.70;;
49840;SDS011;35738;49.890;5.930;2023-12-04T08:02:59;15.13;;;8.70;;
49840;SDS011;35738;49.890;5.930;2023-12-04T08:05:25;15.10;;;7.83;;
49840;SDS011;35738;49.890;5.930;2023-12-04T08:07:53;16.80;;;8.93;;
49840;SDS011;35738;49.890;5.930;2023-12-04T08:10:20;12.13;;;8.23;;
49840;SDS011;35738;49.890;5.930;2023-12-04T08:12:49;13.80;;;8.77;;
49840;SDS011;35738;49.890;5.930;2023-12-04T08:15:15;16.43;;;9.67;;
49840;SDS011;35738;49.890;5.930;2023-12-04T08:17:41;19.30;;;8.87;;
49840;SDS011;35738;49.890;5.930;2023-12-04T08:20:08;13.23;;;8.40;;
49840;SDS011;35738;49.890;5.930;2023-12-04T08:22:47;14.93;;;9.00;;
49840;SDS011;35738;49.890;5.930;2023-12-04T08:25:13;13.60;;;8.60;;
49840;SDS011;35738;49.890;5.930;2023-12-04T08:27:40;15.60;;;8.90;;
49840;SDS011;35738;49.890;5.930;2023-12-04T08:30:06;16.73;;;8.57;;
49840;SDS011;35738;49.890;5.930;2023-12-04T08:32:33;15.83;;;8.40;;
49840;SDS011;35738;49.890;5.930;2023-12-04T08:34:59;16.37;;;8.93;;
49840;SDS011;35738;49.890;5.930;2023-12-04T08:37:26;14.87;;;8.90;;
49840;SDS011;35738;49.890;5.930;2023-12-04T08:39:53;15.20;;;8.70;;
49840;SDS011;35738;49.890;5.930;2023-12-04T08:42:23;14.97;;;8.47;;
49840;SDS011;35738;49.890;5.930;2023-12-04T08:44:49;15.17;;;8.23;;
49840;SDS011;35738;49.890;5.930;2023-12-04T08:47:15;16.67;;;8.40;;
49840;SDS011;35738;49.890;5.930;2023-12-04T08:49:42;16.30;;;8.17;;
49840;SDS011;35738;49.890;5.930;2023-12-04T08:52:14;18.00;;;9.03;;
49840;SDS011;35738;49.890;5.930;2023-12-04T08:54:41;17.57;;;9.00;;
49840;SDS011;35738;49.890;5.930;2023-12-04T08:57:08;17.93;;;9.50;;
49840;SDS011;35738;49.890;5.930;2023-12-04T08:59:34;17.60;;;8.67;;
49840;SDS011;35738;49.890;5.930;2023-12-04T09:02:01;16.93;;;9.53;;
49840;SDS011;35738;49.890;5.930;2023-12-04T09:04:31;19.50;;;10.13;;
49840;SDS011;35738;49.890;5.930;2023-12-04T09:06:58;16.30;;;9.47;;
49840;SDS011;35738;49.890;5.930;2023-12-04T09:09:28;17.57;;;9.47;;
49840;SDS011;35738;49.890;5.930;2023-12-04T09:11:55;15.67;;;9.50;;
49840;SDS011;35738;49.890;5.930;2023-12-04T09:14:21;19.57;;;9.70;;
49840;SDS011;35738;49.890;5.930;2023-12-04T09:16:47;17.50;;;9.50;;
49840;SDS011;35738;49.890;5.930;2023-12-04T09:19:14;16.93;;;9.60;;
49840;SDS011;35738;49.890;5.930;2023-12-04T09:21:40;20.20;;;10.67;;
49840;SDS011;35738;49.890;5.930;2023-12-04T09:24:07;17.40;;;9.73;;
49840;SDS011;35738;49.890;5.930;2023-12-04T09:26:33;20.40;;;10.60;;
49840;SDS011;35738;49.890;5.930;2023-12-04T09:29:00;18.27;;;9.57;;
49840;SDS011;35738;49.890;5.930;2023-12-04T09:31:26;21.57;;;10.77;;
49840;SDS011;35738;49.890;5.930;2023-12-04T09:33:52;17.13;;;10.03;;
49840;SDS011;35738;49.890;5.930;2023-12-04T09:36:19;20.50;;;10.87;;
49840;SDS011;35738;49.890;5.930;2023-12-04T09:38:45;21.80;;;10.80;;
49840;SDS011;35738;49.890;5.930;2023-12-04T09:41:13;31.43;;;11.13;;
49840;SDS011;35738;49.890;5.930;2023-12-04T09:43:40;19.73;;;11.17;;
49840;SDS011;35738;49.890;5.930;2023-12-04T09:46:08;18.63;;;10.57;;
49840;SDS011;35738;49.890;5.930;2023-12-04T09:48:35;20.57;;;11.30;;
49840;SDS011;35738;49.890;5.930;2023-12-04T09:51:02;21.60;;;11.77;;
49840;SDS011;35738;49.890;5.930;2023-12-04T09:53:29;19.67;;;11.40;;
49840;SDS011;35738;49.890;5.930;2023-12-04T09:55:57;20.97;;;11.43;;
49840;SDS011;35738;49.890;5.930;2023-12-04T09:58:25;20.23;;;11.67;;
49840;SDS011;35738;49.890;5.930;2023-12-04T10:00:53;20.30;;;12.07;;
49840;SDS011;35738;49.890;5.930;2023-12-04T10:03:21;20.40;;;11.73;;
49840;SDS011;35738;49.890;5.930;2023-12-04T10:05:47;20.53;;;12.40;;
49840;SDS011;35738;49.890;5.930;2023-12-04T10:08:14;20.73;;;11.83;;
49840;SDS011;35738;49.890;5.930;2023-12-04T10:10:43;20.37;;;11.80;;
49840;SDS011;35738;49.890;5.930;2023-12-04T10:13:09;18.70;;;11.70;;
49840;SDS011;35738;49.890;5.930;2023-12-04T10:15:46;19.13;;;11.37;;
49840;SDS011;35738;49.890;5.930;2023-12-04T10:18:25;19.10;;;11.37;;
49840;SDS011;35738;49.890;5.930;2023-12-04T10:20:54;19.83;;;11.67;;
49840;SDS011;35738;49.890;5.930;2023-12-04T10:23:35;20.40;;;11.63;;
49840;SDS011;35738;49.890;5.930;2023-12-04T10:26:02;20.70;;;12.37;;
49840;SDS011;35738;49.890;5.930;2023-12-04T10:28:28;18.60;;;11.57;;
49840;SDS011;35738;49.890;5.930;2023-12-04T10:30:56;18.80;;;10.87;;
49840;SDS011;35738;49.890;5.930;2023-12-04T10:33:24;21.20;;;11.67;;
49840;SDS011;35738;49.890;5.930;2023-12-04T10:35:52;20.13;;;11.33;;
49840;SDS011;35738;49.890;5.930;2023-12-04T10:38:18;17.60;;;11.87;;
49840;SDS011;35738;49.890;5.930;2023-12-04T10:40:45;18.03;;;11.43;;
49840;SDS011;35738;49.890;5.930;2023-12-04T10:45:38;18.93;;;11.37;;
49840;SDS011;35738;49.890;5.930;2023-12-04T10:48:06;18.33;;;10.83;;
49840;SDS011;35738;49.890;5.930;2023-12-04T10:50:33;16.47;;;11.10;;
49840;SDS011;35738;49.890;5.930;2023-12-04T10:53:04;18.97;;;11.47;;
49840;SDS011;35738;49.890;5.930;2023-12-04T10:55:31;17.53;;;11.80;;
49840;SDS011;35738;49.890;5.930;2023-12-04T10:57:58;17.90;;;11.43;;
49840;SDS011;35738;49.890;5.930;2023-12-04T11:00:25;19.77;;;11.77;;
49840;SDS011;35738;49.890;5.930;2023-12-04T11:02:54;16.50;;;11.00;;
49840;SDS011;35738;49.890;5.930;2023-12-04T11:05:22;15.90;;;11.00;;
49840;SDS011;35738;49.890;5.930;2023-12-04T11:08:00;17.33;;;11.50;;
49840;SDS011;35738;49.890;5.930;2023-12-04T11:13:23;21.00;;;11.63;;
49840;SDS011;35738;49.890;5.930;2023-12-04T11:15:52;53.27;;;12.10;;
49840;SDS011;35738;49.890;5.930;2023-12-04T11:18:20;37.97;;;13.07;;
49840;SDS011;35738;49.890;5.930;2023-12-04T11:20:48;53.10;;;14.40;;
49840;SDS011;35738;49.890;5.930;2023-12-04T11:23:17;50.73;;;12.73;;
49840;SDS011;35738;49.890;5.930;2023-12-04T11:25:43;35.37;;;14.20;;
49840;SDS011;35738;49.890;5.930;2023-12-04T11:28:10;81.90;;;14.67;;
49840;SDS011;35738;49.890;5.930;2023-12-04T11:30:37;98.63;;;15.23;;
49840;SDS011;35738;49.890;5.930;2023-12-04T11:33:04;110.77;;;16.33;;
49840;SDS011;35738;49.890;5.930;2023-12-04T11:35:31;94.63;;;16.40;;
49840;SDS011;35738;49.890;5.930;2023-12-04T11:37:59;96.90;;;17.30;;
49840;SDS011;35738;49.890;5.930;2023-12-04T11:40:26;105.67;;;17.17;;
49840;SDS011;35738;49.890;5.930;2023-12-04T11:42:53;152.10;;;18.17;;
49840;SDS011;35738;49.890;5.930;2023-12-04T11:45:19;75.53;;;16.63;;
49840;SDS011;35738;49.890;5.930;2023-12-04T11:47:56;23.67;;;11.67;;
49840;SDS011;35738;49.890;5.930;2023-12-04T11:50:26;36.50;;;12.83;;
49840;SDS011;35738;49.890;5.930;2023-12-04T11:52:52;30.20;;;13.43;;
49840;SDS011;35738;49.890;5.930;2023-12-04T11:55:20;28.33;;;13.70;;
49840;SDS011;35738;49.890;5.930;2023-12-04T11:57:49;42.90;;;13.70;;
49840;SDS011;35738;49.890;5.930;2023-12-04T12:02:47;21.40;;;9.93;;
49840;SDS011;35738;49.890;5.930;2023-12-04T12:05:37;17.87;;;11.03;;
49840;SDS011;35738;49.890;5.930;2023-12-04T12:08:08;14.83;;;9.27;;
49840;SDS011;35738;49.890;5.930;2023-12-04T12:10:34;18.43;;;9.80;;
49840;SDS011;35738;49.890;5.930;2023-12-04T12:13:01;13.73;;;9.60;;
49840;SDS011;35738;49.890;5.930;2023-12-04T12:15:28;10.30;;;8.10;;
49840;SDS011;35738;49.890;5.930;2023-12-04T12:17:55;12.40;;;8.20;;
49840;SDS011;35738;49.890;5.930;2023-12-04T12:20:22;16.03;;;8.20;;
49840;SDS011;35738;49.890;5.930;2023-12-04T12:22:48;14.40;;;8.03;;
49840;SDS011;35738;49.890;5.930;2023-12-04T12:25:15;9.97;;;6.90;;
49840;SDS011;35738;49.890;5.930;2023-12-04T12:27:42;11.33;;;7.37;;
49840;SDS011;35738;49.890;5.930;2023-12-04T12:30:10;12.03;;;8.50;;
49840;SDS011;35738;49.890;5.930;2023-12-04T12:32:36;12.80;;;7.93;;
49840;SDS011;35738;49.890;5.930;2023-12-04T12:35:03;10.50;;;7.70;;
49840;SDS011;35738;49.890;5.930;2023-12-04T12:37:30;12.03;;;8.37;;
49840;SDS011;35738;49.890;5.930;2023-12-04T12:39:57;9.00;;;6.73;;
49840;SDS011;35738;49.890;5.930;2023-12-04T12:42:24;7.63;;;5.93;;
49840;SDS011;35738;49.890;5.930;2023-12-04T12:44:51;8.63;;;6.67;;
49840;SDS011;35738;49.890;5.930;2023-12-04T12:47:18;7.77;;;5.80;;
49840;SDS011;35738;49.890;5.930;2023-12-04T12:49:45;8.63;;;6.53;;
49840;SDS011;35738;49.890;5.930;2023-12-04T12:52:12;10.57;;;7.00;;
49840;SDS011;35738;49.890;5.930;2023-12-04T12:54:39;9.63;;;7.20;;
49840;SDS011;35738;49.890;5.930;2023-12-04T12:57:06;15.33;;;6.27;;
49840;SDS011;35738;49.890;5.930;2023-12-04T12:59:33;10.97;;;6.50;;
49840;SDS011;35738;49.890;5.930;2023-12-04T13:02:00;14.93;;;8.20;;
49840;SDS011;35738;49.890;5.930;2023-12-04T13:04:48;25.93;;;14.73;;
49840;SDS011;35738;49.890;5.930;2023-12-04T13:07:13;19.77;;;10.90;;
49840;SDS011;35738;49.890;5.930;2023-12-04T13:09:40;15.60;;;9.93;;
49840;SDS011;35738;49.890;5.930;2023-12-04T13:12:06;20.33;;;10.80;;
49840;SDS011;35738;49.890;5.930;2023-12-04T13:14:33;20.23;;;10.97;;
49840;SDS011;35738;49.890;5.930;2023-12-04T13:17:01;13.97;;;8.93;;
49840;SDS011;35738;49.890;5.930;2023-12-04T13:19:27;7.27;;;5.53;;
49840;SDS011;35738;49.890;5.930;2023-12-04T13:21:54;19.53;;;6.10;;
49840;SDS011;35738;49.890;5.930;2023-12-04T13:24:20;36.63;;;7.07;;
49840;SDS011;35738;49.890;5.930;2023-12-04T13:26:47;78.70;;;8.90;;
49840;SDS011;35738;49.890;5.930;2023-12-04T13:29:13;275.43;;;18.20;;
49840;SDS011;35738;49.890;5.930;2023-12-04T13:31:42;353.57;;;20.77;;
49840;SDS011;35738;49.890;5.930;2023-12-04T13:34:08;438.67;;;24.37;;
49840;SDS011;35738;49.890;5.930;2023-12-04T13:36:35;598.60;;;30.63;;
49840;SDS011;35738;49.890;5.930;2023-12-04T13:39:03;509.50;;;26.43;;
49840;SDS011;35738;49.890;5.930;2023-12-04T13:41:31;669.20;;;31.57;;
49840;SDS011;35738;49.890;5.930;2023-12-04T13:44:16;599.30;;;30.53;;
49840;SDS011;35738;49.890;5.930;2023-12-04T13:46:42;572.23;;;30.37;;
49840;SDS011;35738;49.890;5.930;2023-12-04T13:49:08;582.60;;;30.27;;
49840;SDS011;35738;49.890;5.930;2023-12-04T13:51:36;560.57;;;28.07;;
49840;SDS011;35738;49.890;5.930;2023-12-04T13:54:06;545.53;;;28.00;;
49840;SDS011;35738;49.890;5.930;2023-12-04T13:56:46;625.10;;;31.00;;
49840;SDS011;35738;49.890;5.930;2023-12-04T13:59:31;662.33;;;35.77;;
49840;SDS011;35738;49.890;5.930;2023-12-04T14:02:00;661.30;;;34.47;;
49840;SDS011;35738;49.890;5.930;2023-12-04T14:04:27;602.77;;;31.87;;
49840;SDS011;35738;49.890;5.930;2023-12-04T14:06:54;572.87;;;29.47;;
49840;SDS011;35738;49.890;5.930;2023-12-04T14:09:25;403.97;;;22.47;;
49840;SDS011;35738;49.890;5.930;2023-12-04T14:11:51;361.17;;;20.60;;
49840;SDS011;35738;49.890;5.930;2023-12-04T14:14:18;571.17;;;28.30;;
49840;SDS011;35738;49.890;5.930;2023-12-04T14:16:44;512.13;;;27.13;;
49840;SDS011;35738;49.890;5.930;2023-12-04T14:19:12;419.10;;;23.23;;
49840;SDS011;35738;49.890;5.930;2023-12-04T14:21:41;383.57;;;22.93;;
49840;SDS011;35738;49.890;5.930;2023-12-04T14:24:07;422.83;;;26.67;;
49840;SDS011;35738;49.890;5.930;2023-12-04T14:26:34;381.17;;;25.33;;
49840;SDS011;35738;49.890;5.930;2023-12-04T14:29:00;351.67;;;22.13;;
49840;SDS011;35738;49.890;5.930;2023-12-04T14:31:27;332.37;;;22.87;;
49840;SDS011;35738;49.890;5.930;2023-12-04T14:33:54;458.47;;;27.23;;